Time;durP1;ratioP1;P1;durP2;ratioP2;P2;SDS_P1;SDS_P2;PMS_P1;PMS_P2;Temp;Humidity;BMP_temperature;BMP_pressure;BME280_temperature;BME280_humidity;BME280_pressure;Samples;Min_cycle;Max_cycle;Signal;HPM_P1;HPM_P2
2021/04/03 00:01:39;;;;;;;23.40;5.37;;;5.90;99.90;;;;;;5055034;28;20281;-81
2021/04/03 00:04:06;;;;;;;24.07;6.40;;;5.80;99.90;;;;;;5054300;28;20209;-82
2021/04/03 00:06:32;;;;;;;14.80;4.83;;;5.80;99.90;;;;;;5052194;28;20250;-82
2021/04/03 00:08:59;;;;;;;18.33;5.13;;;5.80;99.90;;;;;;5053918;28;20242;-81
2021/04/03 00:11:26;;;;;;;16.40;4.93;;;5.70;99.90;;;;;;5054806;28;20190;-83
2021/04/03 00:13:52;;;;;;;22.57;5.17;;;5.70;99.90;;;;;;5052482;28;20202;-81
2021/04/03 00:16:19;;;;;;;20.67;4.53;;;5.80;99.90;;;;;;5054602;28;20209;-82
2021/04/03 00:18:45;;;;;;;16.03;4.50;;;5.80;99.90;;;;;;5053848;28;20748;-83
2021/04/03 00:21:12;;;;;;;19.83;4.60;;;5.80;99.90;;;;;;5051980;28;20293;-80
2021/04/03 00:23:38;;;;;;;23.67;4.97;;;5.80;99.90;;;;;;5054783;28;20207;-82
2021/04/03 00:26:06;;;;;;;13.27;4.40;;;5.70;99.90;;;;;;5054477;28;20757;-81
2021/04/03 00:28:32;;;;;;;22.40;4.57;;;5.70;99.90;;;;;;5054110;28;20281;-83
2021/04/03 00:30:58;;;;;;;14.20;3.83;;;5.70;99.90;;;;;;5054250;28;20194;-81
2021/04/03 00:33:25;;;;;;;37.77;5.60;;;5.60;99.90;;;;;;5053385;28;20643;-82
2021/04/03 00:35:51;;;;;;;20.80;4.83;;;5.50;99.90;;;;;;5050745;28;20278;-82
2021/04/03 00:38:18;;;;;;;17.03;4.13;;;5.60;99.90;;;;;;5054252;28;20255;-83
2021/04/03 00:40:46;;;;;;;20.73;4.40;;;5.50;99.90;;;;;;5053633;28;20201;-82
2021/04/03 00:43:16;;;;;;;19.23;4.67;;;5.50;99.90;;;;;;5051558;28;20238;-82
2021/04/03 00:45:43;;;;;;;24.67;4.53;;;5.40;99.90;;;;;;5054044;28;20200;-82
2021/04/03 00:48:10;;;;;;;17.83;4.00;;;5.50;99.90;;;;;;5052942;28;20566;-83
2021/04/03 00:50:39;;;;;;;19.97;4.30;;;5.50;99.90;;;;;;5053963;28;20648;-83
2021/04/03 00:53:05;;;;;;;14.37;4.23;;;5.50;99.90;;;;;;5053547;28;20280;-82
2021/04/03 00:55:32;;;;;;;19.37;3.90;;;5.50;99.90;;;;;;5048040;28;20285;-83
2021/04/03 00:58:00;;;;;;;19.70;4.60;;;5.50;99.90;;;;;;5053456;28;20272;-82
2021/04/03 01:00:27;;;;;;;18.63;4.63;;;5.60;99.90;;;;;;5053228;28;20213;-81
2021/04/03 01:02:54;;;;;;;19.57;4.87;;;5.80;99.90;;;;;;5050738;28;20205;-82
2021/04/03 01:05:23;;;;;;;17.43;4.63;;;5.90;99.90;;;;;;5053363;28;20284;-82
2021/04/03 01:07:50;;;;;;;23.33;4.70;;;5.90;99.90;;;;;;5053351;28;20245;-81
2021/04/03 01:10:18;;;;;;;18.53;4.73;;;5.90;99.90;;;;;;5053150;28;20196;-82
2021/04/03 01:12:56;;;;;;;24.13;5.10;;;5.80;99.90;;;;;;5071689;28;20193;-81
2021/04/03 01:15:26;;;;;;;19.70;4.73;;;5.80;99.90;;;;;;5077044;28;20189;-81
2021/04/03 01:18:03;;;;;;;20.77;3.60;;;5.80;99.90;;;;;;5074498;28;20201;-80
2021/04/03 01:20:40;;;;;;;17.67;3.57;;;5.90;99.90;;;;;;5077469;28;20189;-81
2021/04/03 01:23:36;;;;;;;16.20;3.27;;;6.10;99.90;;;;;;5057461;28;20665;-81
2021/04/03 01:26:36;;;;;;;20.23;3.50;;;6.30;99.90;;;;;;5053471;28;20189;-80
2021/04/03 01:29:42;;;;;;;13.27;3.17;;;6.40;99.90;;;;;;5044200;28;20296;-80
2021/04/03 01:32:09;;;;;;;13.63;3.20;;;6.50;99.90;;;;;;5052931;28;20188;-81
2021/04/03 01:34:39;;;;;;;17.93;3.63;;;6.60;99.90;;;;;;5053887;28;20657;-81
2021/04/03 01:37:11;;;;;;;22.40;3.80;;;6.50;99.90;;;;;;5054313;28;20203;-80
2021/04/03 01:39:38;;;;;;;15.50;3.40;;;6.60;99.90;;;;;;5051539;28;20218;-81
2021/04/03 01:42:08;;;;;;;17.80;4.07;;;6.60;99.90;;;;;;5052691;28;20189;-81
2021/04/03 01:44:38;;;;;;;18.37;2.83;;;6.60;99.90;;;;;;5050578;28;20282;-81
2021/04/03 01:47:06;;;;;;;18.37;3.23;;;6.60;99.90;;;;;;5052709;28;20698;-81
2021/04/03 01:49:34;;;;;;;17.13;3.43;;;6.60;99.90;;;;;;5050166;28;20292;-81
2021/04/03 01:52:01;;;;;;;12.97;2.70;;;6.50;99.90;;;;;;5053374;28;20193;-82
2021/04/03 01:54:29;;;;;;;14.17;2.50;;;6.50;99.90;;;;;;5052409;28;20273;-82
2021/04/03 01:56:57;;;;;;;16.70;2.97;;;6.50;99.90;;;;;;5050507;28;20276;-83
2021/04/03 01:59:25;;;;;;;9.77;2.13;;;6.50;99.90;;;;;;5052475;28;20208;-82
2021/04/03 02:01:55;;;;;;;11.27;2.10;;;6.50;99.90;;;;;;5048865;28;20198;-82
2021/04/03 02:04:23;;;;;;;13.70;2.47;;;6.50;99.90;;;;;;5052122;28;20337;-81
2021/04/03 02:06:50;;;;;;;13.23;2.53;;;6.50;99.90;;;;;;5052472;28;20213;-82
2021/04/03 02:09:17;;;;;;;20.60;2.47;;;6.50;99.90;;;;;;5053214;28;20285;-81
2021/04/03 02:11:45;;;;;;;13.30;2.77;;;6.50;99.90;;;;;;5052713;28;20190;-79
2021/04/03 02:14:13;;;;;;;14.40;2.27;;;6.50;99.90;;;;;;5050086;28;20722;-80
2021/04/03 02:16:41;;;;;;;17.70;2.50;;;6.50;99.90;;;;;;5052653;28;20277;-81
2021/04/03 02:19:10;;;;;;;11.67;2.07;;;6.60;99.90;;;;;;5052180;28;20197;-81
2021/04/03 02:21:39;;;;;;;11.30;2.10;;;6.50;99.90;;;;;;5052219;28;20651;-81
2021/04/03 02:24:06;;;;;;;14.37;3.10;;;6.50;99.90;;;;;;5052566;28;20662;-81
2021/04/03 02:26:34;;;;;;;14.73;2.30;;;6.50;99.90;;;;;;5051356;28;20681;-80
2021/04/03 02:29:01;;;;;;;19.30;2.43;;;6.50;99.90;;;;;;5052631;28;20191;-79
2021/04/03 02:31:29;;;;;;;16.27;2.67;;;6.50;99.90;;;;;;5052830;28;20298;-80
2021/04/03 02:33:55;;;;;;;19.53;2.63;;;6.50;99.90;;;;;;5055911;28;20639;-80
2021/04/03 02:36:22;;;;;;;18.47;3.20;;;6.50;99.90;;;;;;5056210;28;20228;-79
2021/04/03 02:38:50;;;;;;;16.07;2.80;;;6.50;99.90;;;;;;5056124;28;20261;-81
2021/04/03 02:41:20;;;;;;;15.63;2.27;;;6.50;99.90;;;;;;5056517;28;20711;-80
2021/04/03 02:43:51;;;;;;;15.07;2.60;;;6.50;99.90;;;;;;5055907;28;20310;-81
2021/04/03 02:46:23;;;;;;;14.20;2.70;;;6.50;99.90;;;;;;5056153;28;20704;-79
2021/04/03 02:48:54;;;;;;;14.97;2.27;;;6.50;99.90;;;;;;5055887;28;20282;-81
2021/04/03 02:51:26;;;;;;;22.13;3.13;;;6.60;99.90;;;;;;5056157;28;20201;-82
2021/04/03 02:53:53;;;;;;;10.13;1.93;;;6.50;99.90;;;;;;5054151;28;20284;-81
2021/04/03 02:56:20;;;;;;;11.30;2.23;;;6.60;99.90;;;;;;5056036;28;20537;-81
2021/04/03 02:58:49;;;;;;;14.13;2.67;;;6.50;99.90;;;;;;5056384;28;20236;-80
2021/04/03 03:01:16;;;;;;;14.37;2.20;;;6.50;99.90;;;;;;5056196;28;20197;-81
2021/04/03 03:03:46;;;;;;;8.87;1.63;;;6.50;99.90;;;;;;5055352;28;20252;-82
2021/04/03 03:06:13;;;;;;;13.07;1.70;;;6.40;99.90;;;;;;5056129;28;20280;-81
2021/04/03 03:08:40;;;;;;;11.73;2.03;;;6.40;99.90;;;;;;5056352;28;20285;-80
2021/04/03 03:11:09;;;;;;;6.73;1.93;;;6.30;99.90;;;;;;5055601;28;20269;-80
2021/04/03 03:13:36;;;;;;;9.03;1.90;;;6.30;99.90;;;;;;5056157;28;20716;-80
2021/04/03 03:16:04;;;;;;;12.07;2.40;;;6.30;99.90;;;;;;5055803;28;20288;-80
2021/04/03 03:18:31;;;;;;;15.53;2.60;;;6.30;99.90;;;;;;5054495;28;20190;-80
2021/04/03 03:20:59;;;;;;;17.17;2.07;;;6.30;99.90;;;;;;5055207;28;20284;-81
2021/04/03 03:23:26;;;;;;;19.80;3.03;;;6.30;99.90;;;;;;5055687;28;20357;-80
2021/04/03 03:25:56;;;;;;;18.57;2.60;;;6.30;99.90;;;;;;5055062;28;20656;-81
2021/04/03 03:28:24;;;;;;;14.43;2.00;;;6.30;99.90;;;;;;5054590;28;20701;-80
2021/04/03 03:30:50;;;;;;;11.40;2.27;;;6.30;99.90;;;;;;5055564;28;20672;-80
2021/04/03 03:33:17;;;;;;;17.63;2.30;;;6.30;99.90;;;;;;5055722;28;20285;-80
2021/04/03 03:35:43;;;;;;;17.87;2.47;;;6.30;99.90;;;;;;5055177;28;20649;-81
2021/04/03 03:38:11;;;;;;;11.57;2.20;;;6.30;99.90;;;;;;5054721;28;20198;-81
2021/04/03 03:40:37;;;;;;;15.33;2.23;;;6.30;99.90;;;;;;5055502;28;20201;-80
2021/04/03 03:43:04;;;;;;;13.77;2.13;;;6.40;99.90;;;;;;5054105;28;20516;-80
2021/04/03 03:45:31;;;;;;;9.90;2.40;;;6.40;99.90;;;;;;5055321;28;20206;-81
2021/04/03 03:47:58;;;;;;;15.50;2.50;;;6.40;99.90;;;;;;5055146;28;20228;-81
2021/04/03 03:50:24;;;;;;;13.63;2.73;;;6.40;99.90;;;;;;5054938;28;20237;-81
2021/04/03 03:52:51;;;;;;;16.33;2.53;;;6.40;99.90;;;;;;5054835;28;20217;-80
2021/04/03 03:55:17;;;;;;;16.83;2.27;;;6.40;99.90;;;;;;5055534;28;20203;-80
2021/04/03 03:57:44;;;;;;;15.20;2.53;;;6.30;99.90;;;;;;5055095;28;20223;-82
2021/04/03 04:00:11;;;;;;;18.50;2.93;;;6.40;99.90;;;;;;5055225;28;20209;-81
2021/04/03 04:02:39;;;;;;;17.97;3.20;;;6.30;99.90;;;;;;5054829;28;20197;-81
2021/04/03 04:05:06;;;;;;;20.17;2.33;;;6.30;99.90;;;;;;5054819;28;20202;-81
2021/04/03 04:07:34;;;;;;;14.50;2.63;;;6.40;99.90;;;;;;5054566;28;20309;-81
2021/04/03 04:10:01;;;;;;;20.70;3.40;;;6.40;99.90;;;;;;5054594;28;20272;-81
2021/04/03 04:12:29;;;;;;;15.23;2.57;;;6.40;99.90;;;;;;5055266;28;20207;-81
2021/04/03 04:14:55;;;;;;;15.73;2.60;;;6.30;99.90;;;;;;5054504;28;20602;-82
2021/04/03 04:17:22;;;;;;;17.57;2.90;;;6.40;99.90;;;;;;5054776;28;20706;-81
2021/04/03 04:19:49;;;;;;;19.60;3.37;;;6.40;99.90;;;;;;5054856;28;20289;-81
2021/04/03 04:22:16;;;;;;;20.50;3.57;;;6.50;99.90;;;;;;5055057;28;20201;-81
2021/04/03 04:24:43;;;;;;;25.17;2.60;;;6.50;99.90;;;;;;5054491;28;20204;-81
2021/04/03 04:27:09;;;;;;;18.00;3.23;;;6.60;99.90;;;;;;5052613;28;20244;-80
2021/04/03 04:29:36;;;;;;;15.47;2.47;;;6.50;99.90;;;;;;5054335;28;20758;-81
2021/04/03 04:32:03;;;;;;;25.07;3.47;;;6.50;99.90;;;;;;5053691;28;20281;-81
2021/04/03 04:34:30;;;;;;;21.40;3.90;;;6.40;99.90;;;;;;5054219;28;20229;-82
2021/04/03 04:36:57;;;;;;;15.17;2.90;;;6.30;99.90;;;;;;5054365;28;20205;-80
2021/04/03 04:39:24;;;;;;;17.17;2.80;;;6.20;99.90;;;;;;5053949;28;20203;-80
2021/04/03 04:41:51;;;;;;;23.67;3.20;;;6.40;99.90;;;;;;5054379;28;20199;-81
2021/04/03 04:44:17;;;;;;;20.40;3.23;;;6.40;99.90;;;;;;5053770;28;20215;-81
2021/04/03 04:46:44;;;;;;;18.73;3.00;;;6.40;99.90;;;;;;5053883;28;20222;-81
2021/04/03 04:49:10;;;;;;;22.47;3.30;;;6.40;99.90;;;;;;5053768;28;20562;-82
2021/04/03 04:51:37;;;;;;;16.77;2.97;;;6.40;99.90;;;;;;5053883;28;20220;-81
2021/04/03 04:54:04;;;;;;;25.93;3.90;;;6.40;99.90;;;;;;5053621;28;20620;-81
2021/04/03 04:56:31;;;;;;;23.37;3.07;;;6.40;99.90;;;;;;5053591;28;20495;-81
2021/04/03 04:58:57;;;;;;;22.97;3.33;;;6.40;99.90;;;;;;5053671;28;20202;-81
2021/04/03 05:01:23;;;;;;;20.93;4.07;;;6.40;99.90;;;;;;5053509;28;20621;-81
2021/04/03 05:03:50;;;;;;;26.33;4.30;;;6.40;99.90;;;;;;5053085;28;20260;-81
2021/04/03 05:06:16;;;;;;;21.70;2.93;;;6.60;99.90;;;;;;5053806;28;20237;-81
2021/04/03 05:08:43;;;;;;;28.03;3.40;;;6.60;99.90;;;;;;5053549;28;20221;-81
2021/04/03 05:11:10;;;;;;;22.33;3.10;;;6.50;99.90;;;;;;5053647;28;20221;-81
2021/04/03 05:13:37;;;;;;;14.37;3.47;;;6.60;99.90;;;;;;5053539;28;20231;-81
2021/04/03 05:16:03;;;;;;;20.27;3.03;;;6.40;99.90;;;;;;5053536;28;20198;-81
2021/04/03 05:18:31;;;;;;;16.20;3.00;;;6.40;99.90;;;;;;5052773;28;20655;-80
2021/04/03 05:20:57;;;;;;;16.13;3.07;;;6.50;99.90;;;;;;5053822;28;20205;-81
2021/04/03 05:23:24;;;;;;;24.60;3.50;;;6.70;99.90;;;;;;5053579;28;20201;-81
2021/04/03 05:25:50;;;;;;;15.17;2.73;;;6.70;99.90;;;;;;5053933;28;20200;-81
2021/04/03 05:28:18;;;;;;;16.93;3.27;;;6.70;99.90;;;;;;5053384;28;20678;-81
2021/04/03 05:30:44;;;;;;;13.80;3.03;;;6.60;99.90;;;;;;5053406;28;20201;-80
2021/04/03 05:33:11;;;;;;;16.47;2.43;;;6.60;99.90;;;;;;5053630;28;20225;-81
2021/04/03 05:35:37;;;;;;;19.53;3.13;;;6.50;99.90;;;;;;5053613;28;20530;-80
2021/04/03 05:38:04;;;;;;;28.73;3.60;;;6.50;99.90;;;;;;5053587;28;20193;-81
2021/04/03 05:40:31;;;;;;;15.07;2.50;;;6.50;99.90;;;;;;5053520;28;20221;-81
2021/04/03 05:43:01;;;;;;;19.27;3.23;;;6.50;99.90;;;;;;5048739;28;20224;-81
2021/04/03 05:45:29;;;;;;;13.47;2.77;;;6.50;99.90;;;;;;5052068;28;20208;-82
2021/04/03 05:47:58;;;;;;;22.00;2.73;;;6.50;99.90;;;;;;5050894;28;20312;-80
2021/04/03 05:50:24;;;;;;;17.50;2.80;;;6.60;99.90;;;;;;5053033;28;20643;-81
2021/04/03 05:52:51;;;;;;;19.57;2.67;;;6.60;99.90;;;;;;5052468;28;20212;-81
2021/04/03 05:55:18;;;;;;;20.60;3.00;;;6.60;99.90;;;;;;5052625;28;20225;-81
2021/04/03 05:57:45;;;;;;;14.13;2.30;;;6.60;99.90;;;;;;5052377;28;20563;-82
2021/04/03 06:00:12;;;;;;;15.00;2.67;;;6.70;99.90;;;;;;5052184;28;20297;-80
2021/04/03 06:02:41;;;;;;;16.10;3.10;;;6.70;99.90;;;;;;5052657;28;20200;-81
2021/04/03 06:05:08;;;;;;;16.30;3.07;;;6.60;99.90;;;;;;5052454;28;20717;-80
2021/04/03 06:07:35;;;;;;;18.43;2.47;;;6.70;99.90;;;;;;5049239;28;20228;-81
2021/04/03 06:10:05;;;;;;;14.73;2.70;;;6.80;99.90;;;;;;5049405;28;20247;-81
2021/04/03 06:12:39;;;;;;;14.00;2.57;;;6.70;99.90;;;;;;5047626;28;20194;-81
2021/04/03 06:15:06;;;;;;;20.57;3.00;;;6.80;99.90;;;;;;5049611;28;20208;-81
2021/04/03 06:17:33;;;;;;;15.70;2.67;;;6.70;99.90;;;;;;5047193;28;20201;-82
2021/04/03 06:20:00;;;;;;;15.37;2.37;;;6.70;99.90;;;;;;5051559;28;20188;-82
2021/04/03 06:22:44;;;;;;;16.17;2.37;;;6.80;99.90;;;;;;5051741;28;20312;-82
2021/04/03 06:25:12;;;;;;;19.27;2.57;;;6.80;99.90;;;;;;5042227;28;20211;-82
2021/04/03 06:27:38;;;;;;;18.23;2.63;;;6.90;99.90;;;;;;5051197;28;20575;-81
2021/04/03 06:30:15;;;;;;;23.97;3.23;;;7.10;99.90;;;;;;5051516;28;20189;-82
2021/04/03 06:32:45;;;;;;;15.97;2.27;;;7.20;99.90;;;;;;5051804;28;20202;-83
2021/04/03 06:35:12;;;;;;;15.87;2.47;;;7.10;99.90;;;;;;5050913;28;20203;-80
2021/04/03 06:37:39;;;;;;;13.97;2.50;;;7.10;99.90;;;;;;5051220;28;20213;-80
2021/04/03 06:40:08;;;;;;;11.77;2.33;;;7.20;99.90;;;;;;5051506;28;20524;-81
2021/04/03 06:42:39;;;;;;;20.67;3.43;;;7.20;99.90;;;;;;5051424;28;20694;-81
2021/04/03 06:45:22;;;;;;;16.17;2.70;;;7.30;99.90;;;;;;5044493;28;20223;-81
2021/04/03 06:47:50;;;;;;;16.60;2.47;;;7.50;99.90;;;;;;5037719;28;20695;-82
2021/04/03 06:50:18;;;;;;;18.87;2.73;;;7.40;99.90;;;;;;5017444;28;20219;-82
2021/04/03 06:52:44;;;;;;;14.80;3.00;;;7.40;99.90;;;;;;5047493;28;20288;-81
2021/04/03 06:55:13;;;;;;;17.13;2.93;;;7.50;99.90;;;;;;5051400;28;20225;-81
2021/04/03 06:57:42;;;;;;;12.80;2.70;;;7.60;99.90;;;;;;5051657;28;20294;-80
2021/04/03 07:00:10;;;;;;;15.70;2.93;;;7.60;99.90;;;;;;5050706;28;20204;-81
2021/04/03 07:02:45;;;;;;;20.57;3.30;;;7.60;99.90;;;;;;5050568;28;20212;-81
2021/04/03 07:05:14;;;;;;;12.10;2.73;;;7.50;99.90;;;;;;5050813;28;20213;-82
2021/04/03 07:07:44;;;;;;;17.17;2.30;;;7.50;99.90;;;;;;5050448;28;20679;-80
2021/04/03 07:10:13;;;;;;;22.30;2.50;;;7.50;99.90;;;;;;5049229;28;20200;-81
2021/04/03 07:12:40;;;;;;;17.07;2.53;;;7.50;99.90;;;;;;5055471;28;20527;-81
2021/04/03 07:15:08;;;;;;;21.77;3.67;;;7.70;99.90;;;;;;5051564;28;20743;-81
2021/04/03 07:17:40;;;;;;;13.47;2.73;;;7.80;99.90;;;;;;5051341;28;20289;-82
2021/04/03 07:20:10;;;;;;;22.57;3.33;;;8.00;99.90;;;;;;5053709;28;20680;-80
2021/04/03 07:22:38;;;;;;;17.10;3.20;;;7.90;99.90;;;;;;5054980;28;20208;-81
2021/04/03 07:25:08;;;;;;;17.07;2.67;;;7.70;99.90;;;;;;5055131;28;20229;-81
2021/04/03 07:27:38;;;;;;;24.33;2.77;;;7.70;99.90;;;;;;5053609;28;20624;-81
2021/04/03 07:30:06;;;;;;;21.63;3.03;;;7.80;99.90;;;;;;5051490;28;20198;-81
2021/04/03 07:32:38;;;;;;;16.87;2.57;;;7.80;99.90;;;;;;5054405;28;20233;-81
2021/04/03 07:35:24;;;;;;;17.63;2.87;;;8.00;99.90;;;;;;5052323;28;20193;-82
2021/04/03 07:37:51;;;;;;;15.80;2.50;;;7.90;99.90;;;;;;5049400;28;20224;-81
2021/04/03 07:40:38;;;;;;;19.80;3.70;;;7.90;99.90;;;;;;5054264;28;20659;-81
2021/04/03 07:43:36;;;;;;;15.73;2.90;;;7.90;99.90;;;;;;5054123;28;20205;-81
2021/04/03 07:46:04;;;;;;;16.73;2.77;;;7.80;99.90;;;;;;5054733;28;20202;-80
2021/04/03 07:48:45;;;;;;;19.57;3.07;;;8.00;99.90;;;;;;5054056;28;20220;-81
2021/04/03 07:51:13;;;;;;;15.50;3.03;;;7.90;99.90;;;;;;5054505;28;20216;-81
2021/04/03 07:53:41;;;;;;;17.27;2.60;;;8.00;99.90;;;;;;5032148;28;21449;-81
2021/04/03 07:56:09;;;;;;;18.50;3.50;;;8.10;99.90;;;;;;5054383;28;20612;-81
2021/04/03 07:58:37;;;;;;;20.40;3.00;;;8.20;99.90;;;;;;5054501;28;20198;-81
2021/04/03 08:01:06;;;;;;;20.33;3.63;;;8.20;99.90;;;;;;5054636;28;20264;-81
2021/04/03 08:03:33;;;;;;;24.97;3.87;;;8.30;99.90;;;;;;5051448;28;20648;-81
2021/04/03 08:06:02;;;;;;;17.77;3.73;;;8.30;99.90;;;;;;5054495;28;20198;-80
2021/04/03 08:08:31;;;;;;;25.67;3.10;;;8.40;99.90;;;;;;5054672;28;20217;-81
2021/04/03 08:11:12;;;;;;;28.50;3.80;;;8.30;99.90;;;;;;5052978;28;20281;-80
2021/04/03 08:13:40;;;;;;;20.07;3.10;;;8.30;99.90;;;;;;5052876;28;20213;-81
2021/04/03 08:16:09;;;;;;;16.63;2.80;;;8.20;99.90;;;;;;5052974;28;20224;-83
2021/04/03 08:18:38;;;;;;;29.93;3.67;;;8.20;99.90;;;;;;5053333;28;20248;-81
2021/04/03 08:21:06;;;;;;;18.17;2.50;;;8.30;99.90;;;;;;5054473;28;20275;-81
2021/04/03 08:23:37;;;;;;;18.23;3.13;;;8.20;99.90;;;;;;5055562;28;20691;-81
2021/04/03 08:26:05;;;;;;;17.47;3.17;;;8.30;99.90;;;;;;5056800;28;20663;-81
2021/04/03 08:28:34;;;;;;;18.33;3.83;;;8.30;99.90;;;;;;5055326;28;20241;-82
2021/04/03 08:31:12;;;;;;;21.73;2.63;;;8.40;99.90;;;;;;5055497;28;20282;-81
2021/04/03 08:33:39;;;;;;;27.43;3.43;;;8.30;99.90;;;;;;5055061;28;20604;-81
2021/04/03 08:36:12;;;;;;;25.33;4.17;;;8.50;99.90;;;;;;5066709;28;20209;-81
2021/04/03 08:38:38;;;;;;;21.17;3.73;;;8.40;99.90;;;;;;5076763;28;20209;-81
2021/04/03 08:41:05;;;;;;;23.63;3.17;;;8.60;99.90;;;;;;5076199;28;20233;-81
2021/04/03 08:43:33;;;;;;;17.83;3.30;;;8.70;99.90;;;;;;5078819;28;20194;-81
2021/04/03 08:46:04;;;;;;;12.73;2.97;;;8.70;99.90;;;;;;5077400;28;20183;-81
2021/04/03 08:48:33;;;;;;;23.73;3.30;;;9.10;99.90;;;;;;5076553;28;20216;-81
2021/04/03 08:51:00;;;;;;;17.40;3.20;;;9.10;99.90;;;;;;5072928;28;20190;-82
2021/04/03 08:53:36;;;;;;;22.13;3.70;;;9.10;99.90;;;;;;5045801;28;20292;-81
2021/04/03 08:56:03;;;;;;;14.17;3.03;;;9.10;99.90;;;;;;5049702;28;20190;-81
2021/04/03 08:58:30;;;;;;;17.47;2.90;;;9.20;99.90;;;;;;5042974;28;20217;-81
2021/04/03 09:00:58;;;;;;;20.13;3.10;;;9.50;99.90;;;;;;5039831;28;20286;-82
2021/04/03 09:03:25;;;;;;;27.07;4.80;;;9.40;99.90;;;;;;5044304;28;20320;-80
2021/04/03 09:05:52;;;;;;;16.37;3.03;;;9.50;99.90;;;;;;5050332;28;20222;-81
2021/04/03 09:08:22;;;;;;;15.97;2.80;;;9.50;99.90;;;;;;5042876;28;20304;-81
2021/04/03 09:10:53;;;;;;;18.43;2.67;;;9.20;99.90;;;;;;5047748;28;20201;-81
2021/04/03 09:13:20;;;;;;;17.23;3.53;;;9.40;99.90;;;;;;5043104;28;20224;-82
2021/04/03 09:15:47;;;;;;;16.77;2.90;;;9.50;99.90;;;;;;5048851;28;20303;-81
2021/04/03 09:18:15;;;;;;;23.67;3.50;;;9.80;99.90;;;;;;5050752;28;20267;-82
2021/04/03 09:20:50;;;;;;;25.83;3.97;;;9.70;99.90;;;;;;5036985;28;20281;-81
2021/04/03 09:23:22;;;;;;;15.17;3.20;;;9.80;99.90;;;;;;5044342;28;20242;-81
2021/04/03 09:25:59;;;;;;;18.10;3.33;;;10.10;99.90;;;;;;5040936;28;20290;-81
2021/04/03 09:28:35;;;;;;;17.70;3.50;;;9.80;99.90;;;;;;5042919;28;20226;-81
2021/04/03 09:31:01;;;;;;;19.07;2.60;;;9.70;99.90;;;;;;5042097;28;20639;-81
2021/04/03 09:33:30;;;;;;;18.07;2.73;;;9.70;99.90;;;;;;5051651;28;20290;-81
2021/04/03 09:36:09;;;;;;;21.00;3.30;;;10.00;99.90;;;;;;5050850;28;20198;-81
2021/04/03 09:38:37;;;;;;;17.87;3.70;;;10.40;99.90;;;;;;5049174;28;20202;-79
2021/04/03 09:41:19;;;;;;;13.53;3.30;;;10.40;99.90;;;;;;5050565;28;20284;-80
2021/04/03 09:43:45;;;;;;;17.70;3.07;;;10.20;99.90;;;;;;5052382;28;20641;-79
2021/04/03 09:46:11;;;;;;;23.90;4.07;;;10.30;99.90;;;;;;5054575;28;20281;-78
2021/04/03 09:48:40;;;;;;;21.80;3.73;;;10.30;99.90;;;;;;5047658;28;20260;-79
2021/04/03 09:51:08;;;;;;;18.80;2.80;;;10.20;99.90;;;;;;5051469;28;20297;-78
2021/04/03 09:53:34;;;;;;;23.00;4.10;;;10.30;99.90;;;;;;5051202;28;20286;-78
2021/04/03 09:56:01;;;;;;;18.73;3.00;;;10.70;99.90;;;;;;5051910;28;20287;-81
2021/04/03 09:58:27;;;;;;;27.03;4.00;;;10.60;99.90;;;;;;5049969;28;20291;-81
2021/04/03 10:00:54;;;;;;;25.27;3.63;;;11.10;99.90;;;;;;5045967;28;20656;-80
2021/04/03 10:03:20;;;;;;;26.40;3.60;;;11.40;99.90;;;;;;5036727;28;20291;-80
2021/04/03 10:05:47;;;;;;;16.80;3.23;;;11.40;99.90;;;;;;5038269;28;20251;-81
2021/04/03 10:08:14;;;;;;;18.27;3.23;;;12.60;99.90;;;;;;5038163;28;20711;-79
2021/04/03 10:10:42;;;;;;;17.70;3.43;;;13.60;99.90;;;;;;5042496;28;20199;-80
2021/04/03 10:13:08;;;;;;;13.60;2.80;;;13.00;99.90;;;;;;5042921;28;20273;-81
2021/04/03 10:15:35;;;;;;;15.93;3.23;;;11.90;99.90;;;;;;5052038;28;20194;-81
2021/04/03 10:18:01;;;;;;;18.17;4.53;;;10.70;99.90;;;;;;5051040;28;20199;-79
2021/04/03 10:20:28;;;;;;;14.60;3.17;;;11.30;99.90;;;;;;5044033;28;20264;-81
2021/04/03 10:22:55;;;;;;;26.30;3.43;;;11.00;99.90;;;;;;5047905;28;20555;-79
2021/04/03 10:25:22;;;;;;;17.37;3.80;;;11.90;99.90;;;;;;5051743;28;20285;-80
2021/04/03 10:27:48;;;;;;;22.23;3.90;;;12.60;99.90;;;;;;5050462;28;20222;-80
2021/04/03 10:30:15;;;;;;;19.83;3.30;;;13.30;99.90;;;;;;5051102;28;20270;-79
2021/04/03 10:32:42;;;;;;;20.13;3.77;;;14.40;99.90;;;;;;5051288;28;20236;-81
2021/04/03 10:35:09;;;;;;;17.53;3.23;;;13.60;99.90;;;;;;5051076;28;20265;-80
2021/04/03 10:37:35;;;;;;;13.07;3.00;;;12.80;99.90;;;;;;5051351;28;20306;-82
2021/04/03 10:40:04;;;;;;;13.67;3.47;;;12.40;99.90;;;;;;5052157;28;20204;-79
2021/04/03 10:42:31;;;;;;;21.27;3.30;;;12.20;99.90;;;;;;5050856;28;20203;-80
2021/04/03 10:44:57;;;;;;;22.13;4.53;;;11.50;99.90;;;;;;5050117;28;20199;-81
2021/04/03 10:47:23;;;;;;;11.40;2.73;;;11.60;99.90;;;;;;5050561;28;20230;-78
2021/04/03 10:49:50;;;;;;;15.77;3.03;;;13.50;99.90;;;;;;5051206;28;20907;-81
2021/04/03 10:52:16;;;;;;;17.57;3.30;;;14.60;99.90;;;;;;5050604;28;20192;-80
2021/04/03 10:54:43;;;;;;;12.47;2.77;;;14.90;99.90;;;;;;5050995;28;20208;-81
2021/04/03 10:57:10;;;;;;;15.77;3.40;;;14.90;99.90;;;;;;5043276;28;20242;-80
2021/04/03 10:59:37;;;;;;;16.50;3.07;;;14.10;99.90;;;;;;5047127;28;20562;-80
2021/04/03 11:02:03;;;;;;;15.27;3.10;;;13.50;99.90;;;;;;5053395;28;20192;-80
2021/04/03 11:04:30;;;;;;;16.97;3.10;;;13.40;99.90;;;;;;5047637;28;20200;-80
2021/04/03 11:06:56;;;;;;;21.10;3.50;;;14.60;99.90;;;;;;5046048;28;20785;-80
2021/04/03 11:09:23;;;;;;;13.70;3.33;;;14.30;99.90;;;;;;5045482;28;20262;-81
2021/04/03 11:11:49;;;;;;;17.47;3.87;;;14.70;99.90;;;;;;5042784;28;20552;-80
2021/04/03 11:14:17;;;;;;;21.53;3.33;;;14.10;99.90;;;;;;5044330;28;20246;-80
2021/04/03 11:16:43;;;;;;;17.83;3.73;;;13.30;99.90;;;;;;5050983;28;20212;-78
2021/04/03 11:19:10;;;;;;;20.63;4.13;;;13.10;99.90;;;;;;5042550;28;20234;-78
2021/04/03 11:21:36;;;;;;;16.17;3.20;;;13.10;99.90;;;;;;5046203;28;20549;-78
2021/04/03 11:24:03;;;;;;;17.93;3.63;;;12.60;99.90;;;;;;5040240;28;20544;-78
2021/04/03 11:26:30;;;;;;;20.80;3.33;;;12.00;99.90;;;;;;5040118;28;20204;-79
2021/04/03 11:28:56;;;;;;;13.20;3.33;;;12.80;99.90;;;;;;5042159;28;20247;-78
2021/04/03 11:31:24;;;;;;;15.73;3.60;;;13.40;99.90;;;;;;5038589;28;20286;-78
2021/04/03 11:33:53;;;;;;;14.40;3.23;;;13.20;99.90;;;;;;5040912;28;20251;-78
2021/04/03 11:36:19;;;;;;;14.93;2.97;;;13.10;99.90;;;;;;5051488;28;20196;-79
2021/04/03 11:38:46;;;;;;;14.87;3.53;;;12.90;99.90;;;;;;5049144;28;20271;-78
2021/04/03 11:41:12;;;;;;;15.27;2.97;;;12.60;99.90;;;;;;5053401;28;20220;-79
2021/04/03 11:43:38;;;;;;;16.20;3.00;;;12.50;99.90;;;;;;5054007;28;20294;-78
2021/04/03 11:46:06;;;;;;;17.60;3.57;;;12.70;99.90;;;;;;5045559;28;20231;-79
2021/04/03 11:48:33;;;;;;;11.53;2.80;;;12.50;99.90;;;;;;5043069;28;20751;-81
2021/04/03 11:51:00;;;;;;;16.03;2.70;;;13.50;99.90;;;;;;5051287;28;20228;-80
2021/04/03 11:53:26;;;;;;;13.20;3.30;;;14.90;99.90;;;;;;5049246;28;20278;-80
2021/04/03 11:55:52;;;;;;;14.43;3.37;;;15.20;99.90;;;;;;5053497;28;20196;-80
2021/04/03 11:58:19;;;;;;;12.27;3.30;;;14.50;99.90;;;;;;5053884;28;20531;-79
2021/04/03 12:00:45;;;;;;;14.70;3.13;;;13.40;99.90;;;;;;5050184;28;20306;-78
2021/04/03 12:03:12;;;;;;;13.37;3.20;;;12.90;99.90;;;;;;5053848;28;20207;-80
2021/04/03 12:05:39;;;;;;;15.70;3.13;;;12.80;99.90;;;;;;5053159;28;20668;-80
2021/04/03 12:08:06;;;;;;;15.97;3.40;;;13.80;99.90;;;;;;5052527;28;20243;-84
2021/04/03 12:10:33;;;;;;;17.63;3.33;;;13.90;99.90;;;;;;5053656;28;20195;-80
2021/04/03 12:12:59;;;;;;;12.80;3.13;;;13.10;99.90;;;;;;5054426;28;20275;-85
2021/04/03 12:15:26;;;;;;;10.90;2.97;;;12.00;99.90;;;;;;5051679;28;20218;-81
2021/04/03 12:17:52;;;;;;;16.07;3.17;;;11.80;99.90;;;;;;5051345;28;20646;-80
2021/04/03 12:20:19;;;;;;;13.83;3.20;;;11.50;99.90;;;;;;5052133;28;20545;-83
2021/04/03 12:22:47;;;;;;;16.90;3.47;;;12.20;99.90;;;;;;5052863;28;20202;-85
2021/04/03 12:25:14;;;;;;;13.50;3.33;;;12.70;99.90;;;;;;5053966;28;20198;-79
2021/04/03 12:27:40;;;;;;;16.20;3.80;;;13.30;99.90;;;;;;5047742;28;20250;-81
2021/04/03 12:30:08;;;;;;;12.33;3.00;;;13.50;99.90;;;;;;5052831;28;20204;-81
2021/04/03 12:32:35;;;;;;;15.27;3.90;;;13.50;99.90;;;;;;5053738;28;20290;-80
2021/04/03 12:35:02;;;;;;;15.03;3.20;;;12.60;99.90;;;;;;5052929;28;20617;-80
2021/04/03 12:37:28;;;;;;;16.17;2.90;;;12.00;99.90;;;;;;5053632;28;20602;-81
2021/04/03 12:39:55;;;;;;;16.07;3.00;;;11.90;99.90;;;;;;5053271;28;20321;-83
2021/04/03 12:42:22;;;;;;;12.13;3.10;;;12.30;99.90;;;;;;5052082;28;20184;-83
2021/04/03 12:44:48;;;;;;;13.03;3.23;;;12.80;99.90;;;;;;5052788;28;20228;-83
2021/04/03 12:47:15;;;;;;;13.30;3.43;;;13.30;99.90;;;;;;5053400;28;20220;-83
2021/04/03 12:49:41;;;;;;;21.67;3.40;;;13.30;99.90;;;;;;5055188;28;20216;-82
2021/04/03 12:52:07;;;;;;;13.97;2.83;;;13.00;99.90;;;;;;5054114;28;20200;-79